Midway, Pennsylvania
Current Conditions -  °F | °C
As of 6:51 AM on Monday 20 Oct 2014 (Local Time) from KPIT Reporting Station
Overcast Overcast  
Wind Chill: 38°   Ceiling: 14000
Heat Index: 42°   Visibility: 10mi
Dew Point: 37°   Wind: 6mph
Humidity: 82%   Direction: 170°S
Pressure: 30"   Gusts: NA
Location:  40.37°N, 80.3°W
Report Text: KPIT 201051Z 17005KT 10SM FEW100 OVC140 06/03 A3000 RMK AO2 SLP172 T00560028
Loading
Personal Weather Stations






























Interactive Weather Map
Tropical Storm Tracking
New forecast layout! Learn more

10-Day Weather Forecast

Advertisements
Track Severe Weather on mobile